Time;durP1;ratioP1;P1;durP2;ratioP2;P2;SDS_P1;SDS_P2;PMS_P1;PMS_P2;Temp;Humidity;BMP_temperature;BMP_pressure;BME280_temperature;BME280_humidity;BME280_pressure;Samples;Min_cycle;Max_cycle;Signal;HPM_P1;HPM_P2
2021/06/11 00:01:40;;;;;;;2.47;1.30;;;;;;;14.79;83.40;100789.44;5050669;28;20683;-72
2021/06/11 00:04:05;;;;;;;2.13;1.97;;;;;;;14.74;83.78;100797.84;5050319;28;20175;-69
2021/06/11 00:06:31;;;;;;;2.13;1.50;;;;;;;14.75;83.59;100796.72;5049868;28;20179;-71
2021/06/11 00:08:57;;;;;;;1.17;1.17;;;;;;;14.72;83.47;100794.63;5050509;28;20515;-72
2021/06/11 00:11:23;;;;;;;1.87;1.77;;;;;;;14.67;83.50;100795.63;5050135;28;20187;-72
2021/06/11 00:13:48;;;;;;;6.23;2.07;;;;;;;14.67;84.49;100792.06;5050410;28;20433;-70
2021/06/11 00:16:13;;;;;;;1.80;1.70;;;;;;;14.64;83.89;100790.78;5050057;28;20282;-69
2021/06/11 00:18:39;;;;;;;1.80;1.70;;;;;;;14.72;82.92;100792.69;5050009;28;20171;-69
2021/06/11 00:21:04;;;;;;;1.63;1.53;;;;;;;14.80;82.91;100805.59;5050328;28;20262;-72
2021/06/11 00:23:29;;;;;;;1.73;1.63;;;;;;;14.84;83.18;100797.50;5050194;28;20194;-71
2021/06/11 00:25:55;;;;;;;1.63;1.53;;;;;;;14.86;83.48;100798.78;5050092;28;20179;-71
2021/06/11 00:28:20;;;;;;;2.00;1.90;;;;;;;14.86;83.23;100800.72;5049993;28;20638;-72
2021/06/11 00:30:46;;;;;;;2.00;1.80;;;;;;;14.93;83.00;100791.97;5050004;28;20179;-70
2021/06/11 00:33:11;;;;;;;1.77;1.67;;;;;;;15.00;82.93;100801.28;5050037;28;20277;-70
2021/06/11 00:35:37;;;;;;;1.70;1.60;;;;;;;15.03;82.65;100794.31;5054008;28;20171;-70
2021/06/11 00:38:04;;;;;;;1.80;1.70;;;;;;;15.02;83.33;100790.75;5053793;28;20257;-70
2021/06/11 00:40:29;;;;;;;2.70;2.10;;;;;;;14.92;83.60;100790.34;5035977;28;20194;-72
2021/06/11 00:42:55;;;;;;;1.97;1.87;;;;;;;14.92;83.47;100791.16;5053937;28;20222;-70
2021/06/11 00:45:20;;;;;;;2.80;2.17;;;;;;;14.96;83.90;100796.78;5053966;28;20277;-70
2021/06/11 00:47:46;;;;;;;1.90;1.80;;;;;;;15.01;84.15;100797.41;5053686;28;20248;-69
2021/06/11 00:50:13;;;;;;;1.90;1.80;;;;;;;14.88;83.74;100793.75;5058189;28;20212;-70
2021/06/11 00:52:40;;;;;;;1.77;1.67;;;;;;;14.91;84.31;100786.78;5073564;28;20194;-69
2021/06/11 00:55:06;;;;;;;1.63;1.53;;;;;;;14.81;84.90;100790.72;5074216;28;20167;-70
2021/06/11 00:57:32;;;;;;;1.50;1.40;;;;;;;14.81;85.51;100796.22;5069551;28;20178;-70
2021/06/11 00:59:58;;;;;;;2.00;1.90;;;;;;;14.88;86.41;100787.44;5054049;28;20186;-70
2021/06/11 01:02:23;;;;;;;1.50;1.40;;;;;;;14.98;85.37;100787.06;5054053;28;20290;-70
2021/06/11 01:04:49;;;;;;;1.70;1.60;;;;;;;15.05;85.28;100778.28;5053927;28;20175;-70
2021/06/11 01:07:16;;;;;;;2.23;2.03;;;;;;;14.95;84.53;100786.94;5053919;28;20209;-70
2021/06/11 01:09:43;;;;;;;1.80;1.70;;;;;;;14.88;85.03;100785.47;5053949;28;20248;-70
2021/06/11 01:12:10;;;;;;;1.83;1.73;;;;;;;14.79;85.47;100784.75;5053938;28;20199;-70
2021/06/11 01:14:36;;;;;;;1.70;1.60;;;;;;;14.83;86.00;100780.19;5053912;28;20558;-70
2021/06/11 01:17:02;;;;;;;1.87;1.77;;;;;;;14.81;85.77;100779.72;5053767;28;20647;-70
2021/06/11 01:19:42;;;;;;;1.87;1.77;;;;;;;14.99;85.37;100777.66;5053764;28;20175;-70
2021/06/11 01:22:32;;;;;;;1.80;1.70;;;;;;;15.13;84.76;100785.69;5053556;28;20210;-70
2021/06/11 01:25:06;;;;;;;1.70;1.60;;;;;;;15.22;84.63;100775.44;5034092;28;20184;-70
2021/06/11 01:27:32;;;;;;;1.70;1.60;;;;;;;15.31;83.79;100776.16;5033650;28;20661;-70
2021/06/11 01:30:05;;;;;;;1.67;1.57;;;;;;;15.41;83.29;100775.75;5015849;28;20176;-71
2021/06/11 01:32:33;;;;;;;1.80;1.70;;;;;;;15.48;82.52;100766.97;5033727;28;20167;-70
2021/06/11 01:35:04;;;;;;;1.87;1.70;;;;;;;15.52;81.87;100769.84;5033584;28;20176;-70
2021/06/11 01:37:33;;;;;;;1.30;1.27;;;;;;;15.50;81.86;100772.94;5033429;28;20183;-70
2021/06/11 01:40:00;;;;;;;1.87;1.77;;;;;;;15.39;81.86;100769.78;5033489;28;20171;-70
2021/06/11 01:42:27;;;;;;;1.63;1.53;;;;;;;15.34;82.90;100775.50;5033283;28;20211;-70
2021/06/11 01:44:54;;;;;;;1.80;1.47;;;;;;;15.29;81.92;100772.13;5033203;28;20310;-70
2021/06/11 01:47:23;;;;;;;2.03;1.93;;;;;;;15.23;82.65;100771.53;5032736;28;20379;-70
2021/06/11 01:49:50;;;;;;;1.80;1.70;;;;;;;15.21;83.17;100765.56;5048323;28;20643;-70
2021/06/11 01:52:17;;;;;;;1.70;1.60;;;;;;;15.21;82.76;100768.31;5032729;28;20582;-70
2021/06/11 01:54:45;;;;;;;1.77;1.67;;;;;;;15.17;82.58;100770.91;5032722;28;20229;-70
2021/06/11 01:57:12;;;;;;;2.20;2.10;;;;;;;15.08;83.10;100772.13;5032545;28;20291;-70
2021/06/11 01:59:39;;;;;;;2.00;1.83;;;;;;;15.04;83.75;100782.16;5032480;28;20222;-70
2021/06/11 02:02:06;;;;;;;2.00;1.90;;;;;;;15.01;83.88;100780.06;5032587;28;20741;-70
2021/06/11 02:04:32;;;;;;;1.77;1.67;;;;;;;14.99;84.02;100780.41;5032282;28;20204;-70
2021/06/11 02:06:58;;;;;;;4.10;2.23;;;;;;;14.96;84.00;100780.28;5032225;28;20179;-70
2021/06/11 02:09:24;;;;;;;1.60;1.50;;;;;;;14.89;84.50;100776.09;5032474;28;20175;-70
2021/06/11 02:11:51;;;;;;;1.50;1.40;;;;;;;14.84;84.51;100772.72;5032428;28;20172;-70
2021/06/11 02:14:17;;;;;;;1.43;1.33;;;;;;;14.81;84.91;100774.22;5032396;28;20187;-70
2021/06/11 02:16:47;;;;;;;1.43;1.33;;;;;;;14.81;85.16;100765.97;5014539;28;20550;-70
2021/06/11 02:19:13;;;;;;;1.70;1.60;;;;;;;14.73;84.79;100769.53;5032400;28;20180;-70
2021/06/11 02:21:40;;;;;;;1.40;1.30;;;;;;;14.64;84.61;100763.31;5032137;28;20254;-70
2021/06/11 02:24:07;;;;;;;2.23;1.70;;;;;;;14.54;85.09;100774.66;5032308;28;20651;-70
2021/06/11 02:26:32;;;;;;;1.63;1.53;;;;;;;14.51;85.48;100765.13;5032013;28;20179;-70
2021/06/11 02:28:58;;;;;;;1.80;1.70;;;;;;;14.42;85.40;100766.25;5032184;28;20533;-70
2021/06/11 02:31:23;;;;;;;1.90;1.80;;;;;;;14.38;85.77;100770.81;5031971;28;20318;-70
2021/06/11 02:33:49;;;;;;;1.50;1.40;;;;;;;14.36;86.11;100762.09;5032027;28;20174;-70
2021/06/11 02:36:14;;;;;;;1.47;1.37;;;;;;;14.39;86.38;100766.91;5031863;28;20187;-70
2021/06/11 02:38:40;;;;;;;1.83;1.73;;;;;;;14.42;86.62;100763.50;5031774;28;20187;-70
2021/06/11 02:41:08;;;;;;;2.20;2.00;;;;;;;14.50;85.99;100762.72;5047076;28;20172;-70
2021/06/11 02:43:37;;;;;;;1.90;1.80;;;;;;;14.55;85.86;100760.56;5031889;28;20180;-72
2021/06/11 02:46:18;;;;;;;1.90;1.80;;;;;;;14.60;85.46;100762.31;5031666;28;20640;-70
2021/06/11 02:48:55;;;;;;;2.17;1.97;;;;;;;14.69;84.81;100767.78;5031670;28;20171;-70
2021/06/11 02:51:56;;;;;;;2.20;2.10;;;;;;;14.62;84.63;100760.06;5031871;28;20172;-70
2021/06/11 02:54:34;;;;;;;2.80;2.60;;;;;;;14.60;84.92;100762.31;4999214;28;20192;-70
2021/06/11 02:57:25;;;;;;;2.40;2.20;;;;;;;14.54;84.91;100766.41;5031327;28;20168;-70
2021/06/11 02:59:54;;;;;;;2.43;1.77;;;;;;;14.28;85.18;100777.47;5031784;28;20194;-70
2021/06/11 03:02:25;;;;;;;1.90;1.80;;;;;;;14.00;86.30;100775.09;5031718;28;20197;-69
2021/06/11 03:04:53;;;;;;;2.20;2.10;;;;;;;13.92;87.34;100769.63;5031874;28;20172;-70
2021/06/11 03:07:24;;;;;;;2.30;2.10;;;;;;;13.95;88.21;100769.78;5031705;28;20178;-70
2021/06/11 03:09:54;;;;;;;5.53;2.20;;;;;;;14.04;89.03;100780.78;5031372;28;20209;-70
2021/06/11 03:12:20;;;;;;;2.40;2.30;;;;;;;14.11;89.17;100772.81;5031328;28;20168;-70
2021/06/11 03:14:46;;;;;;;1.90;1.80;;;;;;;14.22;88.51;100774.09;5031275;28;20176;-70
2021/06/11 03:17:11;;;;;;;1.97;1.77;;;;;;;14.32;87.33;100766.59;5031310;28;20164;-70
2021/06/11 03:19:39;;;;;;;2.10;2.00;;;;;;;14.37;87.11;100764.50;5031332;28;20222;-70
2021/06/11 03:22:12;;;;;;;2.50;2.30;;;;;;;14.47;86.26;100761.44;5031118;28;20199;-70
2021/06/11 03:24:50;;;;;;;2.50;2.30;;;;;;;14.54;85.73;100763.66;5031166;28;20168;-70
2021/06/11 03:27:20;;;;;;;1.97;1.87;;;;;;;14.51;85.45;100759.63;5030843;28;20187;-70
2021/06/11 03:29:51;;;;;;;2.20;2.10;;;;;;;14.51;85.31;100759.63;5030989;28;20168;-70
2021/06/11 03:32:23;;;;;;;2.53;2.33;;;;;;;14.38;85.71;100759.81;5030989;28;20639;-70
2021/06/11 03:34:50;;;;;;;1.90;1.80;;;;;;;14.25;86.84;100754.19;5030928;28;20179;-72
2021/06/11 03:37:18;;;;;;;1.70;1.60;;;;;;;14.16;87.25;100761.66;5030727;28;20168;-70
2021/06/11 03:39:56;;;;;;;1.80;1.70;;;;;;;14.14;87.80;100761.16;5030715;28;20172;-70
2021/06/11 03:42:23;;;;;;;2.90;2.60;;;;;;;14.17;88.60;100763.25;5030790;28;20222;-70
2021/06/11 03:44:51;;;;;;;1.63;1.53;;;;;;;14.20;88.17;100762.63;5030779;28;20183;-70
2021/06/11 03:47:23;;;;;;;1.70;1.60;;;;;;;14.19;88.25;100762.97;5030524;28;20639;-70
2021/06/11 03:49:54;;;;;;;1.97;1.87;;;;;;;14.20;88.41;100768.13;5031033;28;20268;-70
2021/06/11 03:52:28;;;;;;;3.27;1.60;;;;;;;14.21;88.42;100756.00;5030618;28;20172;-70
2021/06/11 03:54:57;;;;;;;1.83;1.70;;;;;;;14.29;88.40;100757.88;5030665;28;20175;-70
2021/06/11 03:57:27;;;;;;;2.37;2.17;;;;;;;14.37;88.34;100760.94;5030571;28;20623;-70
2021/06/11 03:59:54;;;;;;;2.07;1.93;;;;;;;14.43;87.94;100759.63;5030409;28;20199;-70
2021/06/11 04:02:20;;;;;;;3.90;2.50;;;;;;;14.55;87.96;100765.28;5030503;28;20278;-70
2021/06/11 04:04:45;;;;;;;2.30;2.17;;;;;;;14.59;87.95;100753.28;5030224;28;20274;-70
2021/06/11 04:07:22;;;;;;;2.43;2.20;;;;;;;14.73;87.41;100749.50;5012533;28;20180;-70
2021/06/11 04:09:57;;;;;;;3.20;2.33;;;;;;;14.72;86.22;100759.69;5030029;28;20317;-70
2021/06/11 04:12:27;;;;;;;2.33;2.17;;;;;;;14.52;86.86;100764.00;5030311;28;20224;-70
2021/06/11 04:14:54;;;;;;;2.30;2.10;;;;;;;14.44;87.06;100759.31;5030417;28;20544;-71
2021/06/11 04:17:27;;;;;;;2.00;1.90;;;;;;;14.62;87.33;100764.78;5030171;28;20164;-70
2021/06/11 04:19:55;;;;;;;2.80;2.57;;;;;;;14.66;86.86;100757.47;5012514;28;20558;-70
2021/06/11 04:22:36;;;;;;;2.17;2.07;;;;;;;14.68;86.96;100766.19;5030260;28;20199;-70
2021/06/11 04:25:06;;;;;;;2.53;2.33;;;;;;;14.64;86.92;100763.31;5030298;28;20172;-70
2021/06/11 04:27:36;;;;;;;2.10;2.00;;;;;;;14.82;87.76;100762.06;5030086;28;20190;-71
2021/06/11 04:30:04;;;;;;;2.40;2.20;;;;;;;14.98;87.02;100756.78;5030187;28;20171;-70
2021/06/11 04:32:29;;;;;;;2.77;2.57;;;;;;;15.20;86.51;100752.13;5030321;28;20256;-70
2021/06/11 04:34:56;;;;;;;2.23;2.13;;;;;;;15.43;84.50;100756.16;5030107;28;20177;-70
2021/06/11 04:37:21;;;;;;;1.87;1.77;;;;;;;15.57;83.26;100755.88;5029973;28;20349;-70
2021/06/11 04:39:47;;;;;;;2.80;2.60;;;;;;;15.62;83.16;100751.00;5029963;28;20175;-70
2021/06/11 04:42:13;;;;;;;2.20;2.00;;;;;;;15.72;83.45;100756.09;5029992;28;20261;-70
2021/06/11 04:44:38;;;;;;;2.47;2.37;;;;;;;15.89;82.92;100751.53;5030120;28;20176;-70
2021/06/11 04:47:04;;;;;;;2.63;2.47;;;;;;;15.87;82.61;100745.56;5029741;28;20172;-71
2021/06/11 04:49:29;;;;;;;2.53;2.33;;;;;;;15.78;84.28;100745.69;5035974;28;20626;-70
2021/06/11 04:51:55;;;;;;;3.23;2.50;;;;;;;15.93;82.52;100747.78;5058648;28;20179;-70
2021/06/11 04:54:20;;;;;;;2.70;2.50;;;;;;;16.11;81.25;100751.16;5049021;28;20175;-70
2021/06/11 04:56:45;;;;;;;2.70;2.50;;;;;;;16.26;81.08;100755.22;5050289;28;20304;-70
2021/06/11 04:59:11;;;;;;;4.53;2.80;;;;;;;16.32;80.70;100753.84;5050299;28;20184;-70
2021/06/11 05:01:36;;;;;;;2.47;2.37;;;;;;;16.43;80.63;100751.44;5050163;28;20219;-70
2021/06/11 05:04:01;;;;;;;2.53;2.33;;;;;;;16.46;80.62;100748.00;5050187;28;20210;-71
2021/06/11 05:06:27;;;;;;;2.50;2.30;;;;;;;16.55;80.57;100757.78;5049937;28;20176;-70
2021/06/11 05:08:52;;;;;;;2.57;2.43;;;;;;;16.61;81.11;100756.41;5050452;28;20641;-70
2021/06/11 05:11:18;;;;;;;2.87;2.63;;;;;;;16.68;80.41;100755.06;5032320;28;20697;-70
2021/06/11 05:13:43;;;;;;;3.37;3.07;;;;;;;16.70;81.45;100752.75;5050156;28;20619;-70
2021/06/11 05:16:09;;;;;;;2.47;2.33;;;;;;;16.75;81.12;100742.28;5050083;28;20181;-70
2021/06/11 05:18:34;;;;;;;3.17;2.97;;;;;;;16.79;81.79;100745.19;5049878;28;20840;-70
2021/06/11 05:21:00;;;;;;;3.40;3.20;;;;;;;16.73;81.75;100739.06;5066601;28;20183;-70
2021/06/11 05:23:26;;;;;;;4.20;2.90;;;;;;;16.75;82.58;100747.00;5053622;28;20245;-70
2021/06/11 05:25:51;;;;;;;2.57;2.37;;;;;;;16.78;83.21;100741.63;5053798;28;20179;-71
2021/06/11 05:28:18;;;;;;;2.30;2.20;;;;;;;16.80;83.88;100736.56;5053547;28;20225;-71
2021/06/11 05:30:44;;;;;;;4.30;2.60;;;;;;;16.79;84.14;100736.91;5053597;28;20183;-70
2021/06/11 05:33:09;;;;;;;3.00;2.80;;;;;;;16.77;84.69;100741.94;5053687;28;20547;-70
2021/06/11 05:35:35;;;;;;;3.37;3.17;;;;;;;16.69;84.73;100738.16;5053537;28;20207;-71
2021/06/11 05:38:05;;;;;;;3.00;2.80;;;;;;;16.83;85.04;100735.84;5053334;28;20187;-71
2021/06/11 05:40:31;;;;;;;3.40;3.20;;;;;;;16.84;85.34;100736.66;5053697;28;20208;-71
2021/06/11 05:42:57;;;;;;;3.10;2.90;;;;;;;16.83;85.25;100727.56;5068692;28;20555;-70
2021/06/11 05:45:22;;;;;;;2.90;2.70;;;;;;;16.92;84.41;100731.03;5053689;28;20206;-70
2021/06/11 05:47:47;;;;;;;3.17;2.97;;;;;;;17.07;84.24;100735.03;5053190;28;20571;-71
2021/06/11 05:50:13;;;;;;;3.60;3.30;;;;;;;17.04;85.89;100735.69;5053156;28;20187;-70
2021/06/11 05:52:38;;;;;;;3.07;2.87;;;;;;;17.18;86.23;100733.38;5053277;28;20181;-70
2021/06/11 05:55:04;;;;;;;3.53;3.23;;;;;;;17.22;85.72;100733.50;5053164;28;20195;-70
2021/06/11 05:57:30;;;;;;;3.10;2.87;;;;;;;17.35;85.55;100731.47;5053017;28;20250;-70
2021/06/11 05:59:57;;;;;;;3.23;3.03;;;;;;;17.46;85.67;100735.38;5068292;28;20183;-70
2021/06/11 06:02:22;;;;;;;3.37;3.10;;;;;;;17.54;84.66;100723.38;5052962;28;20199;-71
2021/06/11 06:04:49;;;;;;;2.83;2.63;;;;;;;17.68;83.17;100732.09;5052961;28;20257;-70
2021/06/11 06:07:14;;;;;;;2.90;2.70;;;;;;;17.78;84.80;100731.56;5052908;28;20218;-71
2021/06/11 06:09:40;;;;;;;4.00;3.70;;;;;;;17.96;82.29;100739.56;5052859;28;20163;-71
2021/06/11 06:12:06;;;;;;;3.37;3.13;;;;;;;18.06;80.80;100734.31;5068254;28;20171;-71
2021/06/11 06:14:32;;;;;;;2.90;2.70;;;;;;;18.14;81.37;100724.25;5052840;28;20179;-71
2021/06/11 06:16:58;;;;;;;3.30;3.00;;;;;;;18.26;82.88;100731.66;5052641;28;20167;-70
2021/06/11 06:19:23;;;;;;;6.00;2.80;;;;;;;18.33;81.97;100732.63;5052518;28;20178;-70
2021/06/11 06:21:49;;;;;;;3.27;3.03;;;;;;;18.40;82.22;100727.28;5052562;28;20264;-71
2021/06/11 06:24:14;;;;;;;3.33;3.13;;;;;;;18.56;82.32;100726.47;5052844;28;20171;-71
2021/06/11 06:26:39;;;;;;;3.43;3.17;;;;;;;18.73;81.32;100726.13;5052327;28;20177;-71
2021/06/11 06:29:05;;;;;;;3.37;3.17;;;;;;;18.78;81.18;100734.16;5052494;28;20179;-71
2021/06/11 06:31:31;;;;;;;3.17;2.97;;;;;;;18.80;81.68;100729.06;5052116;28;20179;-71
2021/06/11 06:33:56;;;;;;;6.17;3.17;;;;;;;18.87;82.79;100731.19;5052520;28;20256;-70
2021/06/11 06:36:22;;;;;;;3.83;3.53;;;;;;;18.94;81.96;100723.84;5052552;28;20258;-71
2021/06/11 06:38:47;;;;;;;3.83;2.97;;;;;;;19.03;82.22;100723.66;5052547;28;20171;-70
2021/06/11 06:41:14;;;;;;;3.37;3.17;;;;;;;19.00;81.70;100730.72;5052331;28;20179;-70
2021/06/11 06:43:39;;;;;;;3.40;3.20;;;;;;;19.08;80.56;100725.31;5052232;28;20168;-71
2021/06/11 06:46:08;;;;;;;3.53;3.23;;;;;;;19.10;81.47;100718.28;5052085;28;20180;-70
2021/06/11 06:48:35;;;;;;;3.60;2.97;;;;;;;19.24;81.01;100723.31;5052081;28;20178;-70
2021/06/11 06:51:00;;;;;;;5.47;4.03;;;;;;;19.38;81.57;100720.84;5052137;28;20204;-71
2021/06/11 06:53:26;;;;;;;3.33;3.13;;;;;;;19.52;80.56;100715.59;5052111;28;20259;-70
2021/06/11 06:55:51;;;;;;;3.73;3.43;;;;;;;19.58;78.92;100716.94;5052131;28;20183;-70
2021/06/11 06:58:16;;;;;;;2.77;2.57;;;;;;;19.64;78.97;100711.91;5051794;28;20615;-71
2021/06/11 07:00:42;;;;;;;3.33;3.13;;;;;;;19.75;79.15;100715.69;5051743;28;20195;-70
2021/06/11 07:03:07;;;;;;;3.40;3.10;;;;;;;19.89;76.48;100715.94;5051788;28;20209;-71
2021/06/11 07:05:33;;;;;;;4.17;3.93;;;;;;;20.04;75.60;100716.22;5067032;28;20633;-70
2021/06/11 07:07:58;;;;;;;3.73;3.43;;;;;;;20.26;75.75;100715.44;5051677;28;20186;-78
2021/06/11 07:10:24;;;;;;;3.37;3.17;;;;;;;20.46;73.95;100718.97;5051660;28;20175;-71
2021/06/11 07:12:49;;;;;;;3.10;2.90;;;;;;;20.46;74.30;100710.63;5051645;28;20525;-71
2021/06/11 07:15:15;;;;;;;3.13;2.70;;;;;;;20.48;73.55;100709.06;5051685;28;20539;-71
2021/06/11 07:17:41;;;;;;;2.73;2.63;;;;;;;20.52;72.13;100716.66;5051444;28;20200;-71
2021/06/11 07:20:08;;;;;;;3.17;2.80;;;;;;;20.62;73.41;100714.06;5051484;28;20183;-71
2021/06/11 07:22:34;;;;;;;3.27;3.07;;;;;;;20.83;70.15;100715.53;5051273;28;20203;-71
2021/06/11 07:25:04;;;;;;;2.93;2.73;;;;;;;21.05;71.42;100725.81;5051385;28;20177;-70
2021/06/11 07:27:33;;;;;;;2.80;2.70;;;;;;;21.09;72.56;100729.44;5051199;28;20263;-71
2021/06/11 07:30:08;;;;;;;2.47;2.37;;;;;;;21.14;73.10;100725.53;5057100;28;20195;-71
2021/06/11 07:32:35;;;;;;;3.73;3.27;;;;;;;21.22;74.34;100713.31;5056795;28;20175;-71
2021/06/11 07:35:01;;;;;;;3.10;2.90;;;;;;;21.27;74.21;100721.38;5051038;28;20171;-70
2021/06/11 07:37:26;;;;;;;2.90;2.70;;;;;;;21.25;74.54;100718.94;5050920;28;20172;-71
2021/06/11 07:39:52;;;;;;;3.00;2.80;;;;;;;21.31;71.74;100722.22;5037543;28;20317;-71
2021/06/11 07:42:17;;;;;;;2.80;2.60;;;;;;;21.37;71.72;100723.47;5051054;28;20676;-71
2021/06/11 07:44:43;;;;;;;2.50;2.30;;;;;;;21.48;66.02;100720.84;5050370;28;20239;-71
2021/06/11 07:47:09;;;;;;;2.33;2.13;;;;;;;21.50;63.68;100715.69;5050801;28;20190;-71
2021/06/11 07:49:35;;;;;;;1.83;1.73;;;;;;;21.65;64.67;100723.81;5058628;28;20307;-70
2021/06/11 07:52:00;;;;;;;2.83;2.63;;;;;;;21.64;63.38;100718.66;5060781;28;20589;-70
2021/06/11 07:54:26;;;;;;;2.43;2.23;;;;;;;21.69;63.89;100724.66;5050727;28;20185;-70
2021/06/11 07:56:52;;;;;;;3.13;2.93;;;;;;;21.74;62.13;100723.53;5050579;28;20186;-71
2021/06/11 07:59:20;;;;;;;2.10;2.00;;;;;;;21.82;64.65;100725.19;5050703;28;20238;-71
2021/06/11 08:01:45;;;;;;;2.20;2.10;;;;;;;21.92;64.42;100732.06;5050617;28;20313;-71
2021/06/11 08:04:10;;;;;;;2.83;2.63;;;;;;;22.02;63.47;100728.59;5050488;28;20282;-71
2021/06/11 08:06:36;;;;;;;2.27;2.07;;;;;;;22.13;64.13;100723.97;5050531;28;20219;-70
2021/06/11 08:09:01;;;;;;;2.03;1.90;;;;;;;22.18;60.99;100725.59;5050956;28;20184;-70
2021/06/11 08:11:27;;;;;;;2.67;2.57;;;;;;;22.18;57.71;100720.03;5050970;28;20239;-70
2021/06/11 08:13:52;;;;;;;1.70;1.60;;;;;;;22.26;60.08;100727.25;5050572;28;20192;-71
2021/06/11 08:16:17;;;;;;;2.10;2.00;;;;;;;22.32;58.45;100728.53;5050149;28;20178;-71
2021/06/11 08:18:43;;;;;;;2.40;2.20;;;;;;;22.41;58.28;100723.41;5050006;28;20237;-71
2021/06/11 08:21:08;;;;;;;2.40;2.30;;;;;;;22.43;58.05;100721.06;5050048;28;20273;-70
2021/06/11 08:23:34;;;;;;;2.77;2.57;;;;;;;22.40;59.46;100718.22;5060079;28;20210;-70
2021/06/11 08:25:59;;;;;;;2.50;2.30;;;;;;;22.47;60.66;100709.94;5052310;28;20177;-71
2021/06/11 08:28:25;;;;;;;3.00;1.73;;;;;;;22.54;60.80;100721.94;5053781;28;20556;-71
2021/06/11 08:30:50;;;;;;;1.73;1.63;;;;;;;22.57;58.45;100731.53;5051063;28;20241;-70
2021/06/11 08:33:16;;;;;;;2.37;2.27;;;;;;;22.60;60.25;100721.59;5064575;28;20746;-70
2021/06/11 08:35:41;;;;;;;2.40;2.30;;;;;;;22.67;61.36;100725.22;5055401;28;20219;-70
2021/06/11 08:38:07;;;;;;;2.40;2.30;;;;;;;22.74;58.72;100728.06;5049768;28;20187;-70
2021/06/11 08:40:33;;;;;;;2.10;2.00;;;;;;;22.82;60.11;100720.53;5032453;28;20176;-70
2021/06/11 08:42:59;;;;;;;2.40;2.20;;;;;;;22.99;60.87;100728.25;5050252;28;20207;-71
2021/06/11 08:45:24;;;;;;;2.30;2.10;;;;;;;22.99;61.45;100725.47;5050330;28;20261;-70
2021/06/11 08:47:52;;;;;;;3.37;3.13;;;;;;;23.03;59.41;100722.72;5050067;28;20536;-70
2021/06/11 08:50:21;;;;;;;2.77;2.57;;;;;;;23.13;60.10;100719.16;5050240;28;20185;-71
2021/06/11 08:52:47;;;;;;;2.83;2.60;;;;;;;23.18;59.38;100721.59;5049962;28;20539;-71
2021/06/11 08:55:13;;;;;;;3.03;2.90;;;;;;;23.25;58.05;100720.81;5051615;28;20171;-71
2021/06/11 08:57:38;;;;;;;3.00;2.80;;;;;;;23.30;59.87;100724.06;5053894;28;20198;-71
2021/06/11 09:00:05;;;;;;;3.03;2.83;;;;;;;23.44;60.16;100714.94;5053936;28;20634;-70
2021/06/11 09:02:31;;;;;;;3.20;3.00;;;;;;;23.54;60.57;100722.53;5054485;28;20262;-71
2021/06/11 09:04:57;;;;;;;3.57;3.37;;;;;;;23.72;60.53;100722.63;5070367;28;20194;-71
2021/06/11 09:07:27;;;;;;;6.03;2.03;;;;;;;23.83;60.07;100739.41;5057228;28;20175;-71
2021/06/11 09:10:06;;;;;;;2.70;2.53;;;;;;;23.78;57.16;100734.22;5053660;28;20185;-70
2021/06/11 09:12:40;;;;;;;3.00;2.80;;;;;;;23.77;57.81;100725.06;5053827;28;20174;-70
2021/06/11 09:15:09;;;;;;;2.87;2.73;;;;;;;23.93;56.49;100730.28;5053817;28;20245;-70
2021/06/11 09:17:41;;;;;;;3.20;3.00;;;;;;;24.02;54.17;100731.50;5053498;28;20539;-71
2021/06/11 09:20:08;;;;;;;2.90;2.70;;;;;;;24.01;55.20;100721.53;5053547;28;20171;-70
2021/06/11 09:22:38;;;;;;;2.50;2.30;;;;;;;24.18;54.07;100733.13;5053547;28;20206;-70
2021/06/11 09:25:26;;;;;;;3.17;2.97;;;;;;;24.33;51.75;100732.75;5069046;28;20613;-70
2021/06/11 09:27:57;;;;;;;2.50;2.30;;;;;;;24.39;51.59;100730.34;5053319;28;20175;-70
2021/06/11 09:30:25;;;;;;;2.40;2.30;;;;;;;24.38;51.63;100728.75;5053243;28;20186;-70
2021/06/11 09:33:03;;;;;;;2.70;2.50;;;;;;;24.43;51.98;100728.34;5053506;28;20815;-70
2021/06/11 09:35:37;;;;;;;2.17;2.07;;;;;;;24.42;51.96;100731.56;5053385;28;20174;-71
2021/06/11 09:38:25;;;;;;;2.83;2.40;;;;;;;24.50;54.77;100728.38;5053282;28;20212;-70
2021/06/11 09:40:57;;;;;;;2.80;2.60;;;;;;;24.62;51.49;100732.75;5068622;28;20258;-70
2021/06/11 09:43:22;;;;;;;2.47;2.37;;;;;;;24.71;51.69;100733.13;5053220;28;20210;-70
2021/06/11 09:46:09;;;;;;;2.00;1.90;;;;;;;24.75;51.16;100733.94;5053335;28;20167;-70
2021/06/11 09:48:45;;;;;;;1.33;1.33;;;;;;;24.55;52.51;100735.53;5052992;28;20453;-70
2021/06/11 09:51:19;;;;;;;3.03;2.80;;;;;;;24.51;54.21;100734.75;5053325;28;20638;-70
2021/06/11 09:53:45;;;;;;;3.00;2.80;;;;;;;24.61;51.63;100736.75;5053235;28;20631;-71
2021/06/11 09:56:27;;;;;;;2.37;2.27;;;;;;;24.61;52.48;100725.59;5052963;28;20220;-70
2021/06/11 09:58:56;;;;;;;2.60;2.40;;;;;;;24.64;53.20;100733.16;5052763;28;20677;-71
2021/06/11 10:01:22;;;;;;;4.40;2.70;;;;;;;24.65;53.09;100731.94;5052733;28;20512;-70
2021/06/11 10:03:50;;;;;;;1.70;1.60;;;;;;;24.57;53.07;100733.94;5052932;28;20176;-70
2021/06/11 10:06:17;;;;;;;2.57;2.33;;;;;;;24.54;55.04;100726.38;5052016;28;20179;-70
2021/06/11 10:08:45;;;;;;;1.97;1.87;;;;;;;24.51;52.06;100731.97;5053001;28;20183;-71
2021/06/11 10:11:13;;;;;;;2.13;2.03;;;;;;;24.63;51.56;100728.78;5068236;28;20214;-72
2021/06/11 10:13:42;;;;;;;2.47;2.37;;;;;;;24.84;52.33;100725.94;5068352;28;20499;-71
2021/06/11 10:16:09;;;;;;;2.43;2.33;;;;;;;25.06;52.01;100729.53;5052883;28;20550;-71
2021/06/11 10:18:35;;;;;;;1.70;1.60;;;;;;;25.23;49.50;100725.09;5052589;28;20206;-72
2021/06/11 10:21:01;;;;;;;2.67;2.47;;;;;;;25.27;49.81;100728.66;5052826;28;20585;-72
2021/06/11 10:23:29;;;;;;;1.87;1.77;;;;;;;25.34;51.36;100731.44;5052721;28;20218;-72
2021/06/11 10:25:57;;;;;;;2.53;2.40;;;;;;;25.07;51.13;100733.91;5052737;28;20172;-72
2021/06/11 10:28:24;;;;;;;2.53;2.37;;;;;;;25.04;52.57;100731.94;5052741;28;20233;-72
2021/06/11 10:30:55;;;;;;;2.80;2.60;;;;;;;25.12;52.62;100733.50;5052664;28;20214;-72
2021/06/11 10:33:52;;;;;;;2.97;2.77;;;;;;;25.08;53.93;100729.13;5052645;28;20530;-72
2021/06/11 10:36:42;;;;;;;3.97;2.93;;;;;;;24.88;53.66;100723.94;5052784;28;20159;-72
2021/06/11 10:39:15;;;;;;;3.00;2.80;;;;;;;24.91;53.57;100730.72;5052132;28;20182;-72
2021/06/11 10:41:53;;;;;;;3.20;3.00;;;;;;;24.95;52.11;100719.53;5052184;28;20263;-72
2021/06/11 10:44:40;;;;;;;3.03;2.87;;;;;;;24.97;52.65;100717.94;5067711;28;20181;-72
2021/06/11 10:47:18;;;;;;;2.90;2.70;;;;;;;24.72;51.32;100720.75;5052072;28;20176;-71
2021/06/11 10:49:55;;;;;;;3.60;3.30;;;;;;;24.40;53.29;100722.78;5052324;28;20175;-72
2021/06/11 10:52:30;;;;;;;3.73;3.47;;;;;;;24.55;55.35;100716.78;5052453;28;20866;-72
2021/06/11 10:55:17;;;;;;;3.00;2.80;;;;;;;24.82;53.79;100716.34;5052085;28;20174;-72
2021/06/11 10:57:44;;;;;;;3.90;3.60;;;;;;;24.91;51.03;100720.34;5051751;28;20184;-72
2021/06/11 11:00:30;;;;;;;3.13;2.93;;;;;;;25.30;53.13;100715.84;5051853;28;20346;-72
2021/06/11 11:03:00;;;;;;;3.43;3.23;;;;;;;25.54;50.76;100712.16;5051195;28;20299;-72
2021/06/11 11:05:30;;;;;;;3.20;3.00;;;;;;;25.48;52.85;100722.19;5051824;28;20564;-72
2021/06/11 11:07:56;;;;;;;3.60;3.40;;;;;;;25.23;52.07;100713.09;5051639;28;20194;-72
2021/06/11 11:10:35;;;;;;;4.50;3.50;;;;;;;24.99;52.30;100715.53;5051715;28;20537;-72
2021/06/11 11:13:03;;;;;;;3.43;3.23;;;;;;;24.95;53.55;100714.75;5051742;28;20228;-72
2021/06/11 11:15:37;;;;;;;3.50;3.20;;;;;;;25.01;53.30;100718.72;5033296;28;20217;-72
2021/06/11 11:18:14;;;;;;;3.83;3.60;;;;;;;24.76;55.00;100710.38;5050134;28;20199;-72
2021/06/11 11:20:42;;;;;;;3.97;3.63;;;;;;;24.65;55.01;100706.81;5050851;28;20178;-72
2021/06/11 11:23:16;;;;;;;3.33;3.13;;;;;;;24.78;55.27;100710.78;5051846;28;20211;-72
2021/06/11 11:25:43;;;;;;;3.47;3.17;;;;;;;25.08;56.47;100703.97;5065626;28;20186;-72
2021/06/11 11:28:10;;;;;;;3.57;3.37;;;;;;;25.17;53.59;100698.72;5071215;28;20708;-72
2021/06/11 11:30:37;;;;;;;3.17;2.97;;;;;;;25.31;52.40;100707.06;5054751;28;20233;-72